sensor_id;sensor_type;location;lat;lon;timestamp;temperature;humidity
29813;DHT22;16707;48.106;11.548;2022-07-29T00:01:18;19.50;96.00
29813;DHT22;16707;48.106;11.548;2022-07-29T00:03:53;19.40;96.30
29813;DHT22;16707;48.106;11.548;2022-07-29T00:06:21;19.40;97.00
29813;DHT22;16707;48.106;11.548;2022-07-29T00:08:51;19.40;97.50
29813;DHT22;16707;48.106;11.548;2022-07-29T00:11:22;19.40;98.00
29813;DHT22;16707;48.106;11.548;2022-07-29T00:13:53;19.40;99.00
29813;DHT22;16707;48.106;11.548;2022-07-29T00:16:25;19.50;99.40
29813;DHT22;16707;48.106;11.548;2022-07-29T00:18:58;19.50;99.60
29813;DHT22;16707;48.106;11.548;2022-07-29T00:21:26;19.40;99.90
29813;DHT22;16707;48.106;11.548;2022-07-29T00:24:03;19.50;99.90
29813;DHT22;16707;48.106;11.548;2022-07-29T00:26:38;19.50;99.90
29813;DHT22;16707;48.106;11.548;2022-07-29T00:29:05;19.50;99.90
29813;DHT22;16707;48.106;11.548;2022-07-29T00:31:41;19.50;99.70
29813;DHT22;16707;48.106;11.548;2022-07-29T00:34:12;19.50;99.00
29813;DHT22;16707;48.106;11.548;2022-07-29T00:36:59;19.50;97.90
29813;DHT22;16707;48.106;11.548;2022-07-29T00:39:30;19.50;97.10
29813;DHT22;16707;48.106;11.548;2022-07-29T00:42:02;19.60;96.30
29813;DHT22;16707;48.106;11.548;2022-07-29T00:44:30;19.60;95.70
29813;DHT22;16707;48.106;11.548;2022-07-29T00:47:06;19.60;95.60
29813;DHT22;16707;48.106;11.548;2022-07-29T00:49:34;19.70;95.10
29813;DHT22;16707;48.106;11.548;2022-07-29T00:52:02;19.70;94.70
29813;DHT22;16707;48.106;11.548;2022-07-29T00:54:39;19.70;94.40
29813;DHT22;16707;48.106;11.548;2022-07-29T00:57:12;19.70;94.40
29813;DHT22;16707;48.106;11.548;2022-07-29T00:59:46;19.70;93.70
29813;DHT22;16707;48.106;11.548;2022-07-29T01:02:15;19.70;93.40
29813;DHT22;16707;48.106;11.548;2022-07-29T01:04:43;19.70;93.20
29813;DHT22;16707;48.106;11.548;2022-07-29T01:07:19;19.70;93.00
29813;DHT22;16707;48.106;11.548;2022-07-29T01:09:47;19.80;93.00
29813;DHT22;16707;48.106;11.548;2022-07-29T01:12:21;19.80;92.70
29813;DHT22;16707;48.106;11.548;2022-07-29T01:14:50;19.80;92.90
29813;DHT22;16707;48.106;11.548;2022-07-29T01:17:24;19.70;92.90
29813;DHT22;16707;48.106;11.548;2022-07-29T01:20:00;19.70;92.50
29813;DHT22;16707;48.106;11.548;2022-07-29T01:22:40;19.70;92.30
29813;DHT22;16707;48.106;11.548;2022-07-29T01:25:34;19.60;92.20
29813;DHT22;16707;48.106;11.548;2022-07-29T01:28:46;19.60;91.90
29813;DHT22;16707;48.106;11.548;2022-07-29T01:31:18;19.60;92.20
29813;DHT22;16707;48.106;11.548;2022-07-29T01:33:55;19.70;91.90
29813;DHT22;16707;48.106;11.548;2022-07-29T01:36:32;19.70;91.40
29813;DHT22;16707;48.106;11.548;2022-07-29T01:39:08;19.80;91.00
29813;DHT22;16707;48.106;11.548;2022-07-29T01:41:46;19.80;90.70
29813;DHT22;16707;48.106;11.548;2022-07-29T01:44:23;19.80;90.40
29813;DHT22;16707;48.106;11.548;2022-07-29T01:47:04;19.80;89.90
29813;DHT22;16707;48.106;11.548;2022-07-29T01:49:36;19.80;90.20
29813;DHT22;16707;48.106;11.548;2022-07-29T01:52:11;19.80;90.50
29813;DHT22;16707;48.106;11.548;2022-07-29T01:54:44;19.80;90.50
29813;DHT22;16707;48.106;11.548;2022-07-29T01:57:24;19.80;90.80
29813;DHT22;16707;48.106;11.548;2022-07-29T01:59:58;19.70;91.10
29813;DHT22;16707;48.106;11.548;2022-07-29T02:02:27;19.80;90.80
29813;DHT22;16707;48.106;11.548;2022-07-29T02:05:12;19.80;91.10
29813;DHT22;16707;48.106;11.548;2022-07-29T02:07:41;19.70;91.50
29813;DHT22;16707;48.106;11.548;2022-07-29T02:10:28;19.70;91.70
29813;DHT22;16707;48.106;11.548;2022-07-29T02:12:57;19.70;92.00
29813;DHT22;16707;48.106;11.548;2022-07-29T02:15:33;19.70;92.20
29813;DHT22;16707;48.106;11.548;2022-07-29T02:18:03;19.70;92.60
29813;DHT22;16707;48.106;11.548;2022-07-29T02:20:39;19.60;93.10
29813;DHT22;16707;48.106;11.548;2022-07-29T02:23:14;19.50;93.30
29813;DHT22;16707;48.106;11.548;2022-07-29T02:25:53;19.50;93.80
29813;DHT22;16707;48.106;11.548;2022-07-29T02:28:24;19.40;94.10
29813;DHT22;16707;48.106;11.548;2022-07-29T02:30:57;19.40;94.20
29813;DHT22;16707;48.106;11.548;2022-07-29T02:33:30;19.40;94.10
29813;DHT22;16707;48.106;11.548;2022-07-29T02:36:02;19.40;94.50
29813;DHT22;16707;48.106;11.548;2022-07-29T02:38:36;19.40;94.30
29813;DHT22;16707;48.106;11.548;2022-07-29T02:41:25;19.40;94.60
29813;DHT22;16707;48.106;11.548;2022-07-29T02:43:57;19.30;95.00
29813;DHT22;16707;48.106;11.548;2022-07-29T02:46:32;19.30;95.50
29813;DHT22;16707;48.106;11.548;2022-07-29T02:49:09;19.30;95.90
29813;DHT22;16707;48.106;11.548;2022-07-29T02:51:45;19.30;96.10
29813;DHT22;16707;48.106;11.548;2022-07-29T02:54:25;19.20;96.20
29813;DHT22;16707;48.106;11.548;2022-07-29T02:57:06;19.20;96.40
29813;DHT22;16707;48.106;11.548;2022-07-29T02:59:36;19.20;96.90
29813;DHT22;16707;48.106;11.548;2022-07-29T03:02:13;19.20;97.60
29813;DHT22;16707;48.106;11.548;2022-07-29T03:04:42;19.10;98.40
29813;DHT22;16707;48.106;11.548;2022-07-29T03:07:23;18.90;99.40
29813;DHT22;16707;48.106;11.548;2022-07-29T03:09:55;18.70;99.90
29813;DHT22;16707;48.106;11.548;2022-07-29T03:12:26;18.50;99.90
29813;DHT22;16707;48.106;11.548;2022-07-29T03:15:00;18.40;99.90
29813;DHT22;16707;48.106;11.548;2022-07-29T03:17:33;18.20;99.90
29813;DHT22;16707;48.106;11.548;2022-07-29T03:20:02;18.10;99.90
29813;DHT22;16707;48.106;11.548;2022-07-29T03:22:39;18.00;99.90
29813;DHT22;16707;48.106;11.548;2022-07-29T03:25:09;17.90;99.90
29813;DHT22;16707;48.106;11.548;2022-07-29T03:27:37;17.80;99.90
29813;DHT22;16707;48.106;11.548;2022-07-29T03:30:06;17.60;99.90
29813;DHT22;16707;48.106;11.548;2022-07-29T03:32:36;17.50;99.90
29813;DHT22;16707;48.106;11.548;2022-07-29T03:35:09;17.30;99.90
29813;DHT22;16707;48.106;11.548;2022-07-29T03:37:39;17.10;99.90
29813;DHT22;16707;48.106;11.548;2022-07-29T03:40:15;17.00;99.90
29813;DHT22;16707;48.106;11.548;2022-07-29T03:42:48;16.90;99.90
29813;DHT22;16707;48.106;11.548;2022-07-29T03:45:18;16.90;99.90
29813;DHT22;16707;48.106;11.548;2022-07-29T03:48:01;16.90;99.90
29813;DHT22;16707;48.106;11.548;2022-07-29T03:50:38;16.90;99.90
29813;DHT22;16707;48.106;11.548;2022-07-29T03:53:12;16.90;99.90
29813;DHT22;16707;48.106;11.548;2022-07-29T03:55:45;16.90;99.90
29813;DHT22;16707;48.106;11.548;2022-07-29T03:58:18;16.80;99.90
29813;DHT22;16707;48.106;11.548;2022-07-29T04:00:56;16.80;99.90
29813;DHT22;16707;48.106;11.548;2022-07-29T04:03:28;16.80;99.90
29813;DHT22;16707;48.106;11.548;2022-07-29T04:06:03;16.80;99.90
29813;DHT22;16707;48.106;11.548;2022-07-29T04:08:39;16.70;99.90
29813;DHT22;16707;48.106;11.548;2022-07-29T04:11:13;16.60;99.90
29813;DHT22;16707;48.106;11.548;2022-07-29T04:13:44;16.60;99.90
29813;DHT22;16707;48.106;11.548;2022-07-29T04:16:14;16.80;99.90
29813;DHT22;16707;48.106;11.548;2022-07-29T04:18:45;16.90;99.90
29813;DHT22;16707;48.106;11.548;2022-07-29T04:21:16;17.00;99.90
29813;DHT22;16707;48.106;11.548;2022-07-29T04:23:44;17.10;99.90
29813;DHT22;16707;48.106;11.548;2022-07-29T04:26:21;17.20;99.90
29813;DHT22;16707;48.106;11.548;2022-07-29T04:28:55;17.30;99.90
29813;DHT22;16707;48.106;11.548;2022-07-29T04:31:22;17.40;99.90
29813;DHT22;16707;48.106;11.548;2022-07-29T04:33:51;17.70;99.90
29813;DHT22;16707;48.106;11.548;2022-07-29T04:36:26;18.00;99.90
29813;DHT22;16707;48.106;11.548;2022-07-29T04:38:57;18.20;99.90
29813;DHT22;16707;48.106;11.548;2022-07-29T04:41:25;18.50;99.90
29813;DHT22;16707;48.106;11.548;2022-07-29T04:44:05;18.90;99.90
29813;DHT22;16707;48.106;11.548;2022-07-29T04:46:43;19.40;99.90
29813;DHT22;16707;48.106;11.548;2022-07-29T04:49:11;20.10;99.90
29813;DHT22;16707;48.106;11.548;2022-07-29T04:51:42;23.00;98.90
29813;DHT22;16707;48.106;11.548;2022-07-29T04:54:10;25.60;83.10
29813;DHT22;16707;48.106;11.548;2022-07-29T04:56:37;27.20;72.10
29813;DHT22;16707;48.106;11.548;2022-07-29T04:59:07;29.30;64.00
29813;DHT22;16707;48.106;11.548;2022-07-29T05:01:34;29.20;59.40
29813;DHT22;16707;48.106;11.548;2022-07-29T05:04:05;29.60;55.90
29813;DHT22;16707;48.106;11.548;2022-07-29T05:06:34;29.70;55.00
29813;DHT22;16707;48.106;11.548;2022-07-29T05:09:04;29.30;56.50
29813;DHT22;16707;48.106;11.548;2022-07-29T05:11:31;27.40;59.80
29813;DHT22;16707;48.106;11.548;2022-07-29T05:13:58;25.70;61.00
29813;DHT22;16707;48.106;11.548;2022-07-29T05:16:26;24.20;68.00
29813;DHT22;16707;48.106;11.548;2022-07-29T05:18:55;23.10;75.30
29813;DHT22;16707;48.106;11.548;2022-07-29T05:21:25;22.20;80.00
29813;DHT22;16707;48.106;11.548;2022-07-29T05:23:55;22.10;81.50
29813;DHT22;16707;48.106;11.548;2022-07-29T05:26:30;22.20;82.00
29813;DHT22;16707;48.106;11.548;2022-07-29T05:29:01;22.50;80.80
29813;DHT22;16707;48.106;11.548;2022-07-29T05:31:31;22.20;80.40
29813;DHT22;16707;48.106;11.548;2022-07-29T05:34:07;22.60;81.30
29813;DHT22;16707;48.106;11.548;2022-07-29T05:36:34;26.30;69.50
29813;DHT22;16707;48.106;11.548;2022-07-29T05:39:04;29.10;59.50
29813;DHT22;16707;48.106;11.548;2022-07-29T05:41:34;30.80;54.00
29813;DHT22;16707;48.106;11.548;2022-07-29T05:44:05;32.20;49.90
29813;DHT22;16707;48.106;11.548;2022-07-29T05:46:35;31.30;50.20
29813;DHT22;16707;48.106;11.548;2022-07-29T05:49:02;30.30;50.30
29813;DHT22;16707;48.106;11.548;2022-07-29T05:51:29;32.20;50.20
29813;DHT22;16707;48.106;11.548;2022-07-29T05:53:57;33.40;47.40
29813;DHT22;16707;48.106;11.548;2022-07-29T05:56:32;33.30;45.10
29813;DHT22;16707;48.106;11.548;2022-07-29T05:58:59;34.60;45.80
29813;DHT22;16707;48.106;11.548;2022-07-29T06:01:32;36.90;42.10
29813;DHT22;16707;48.106;11.548;2022-07-29T06:03:59;39.40;38.10
29813;DHT22;16707;48.106;11.548;2022-07-29T06:06:27;40.90;36.00
29813;DHT22;16707;48.106;11.548;2022-07-29T06:08:54;40.20;34.80
29813;DHT22;16707;48.106;11.548;2022-07-29T06:11:29;39.40;34.90
29813;DHT22;16707;48.106;11.548;2022-07-29T06:14:01;40.60;33.90
29813;DHT22;16707;48.106;11.548;2022-07-29T06:16:32;42.10;32.90
29813;DHT22;16707;48.106;11.548;2022-07-29T06:18:59;40.70;32.70
29813;DHT22;16707;48.106;11.548;2022-07-29T06:21:26;40.40;32.30
29813;DHT22;16707;48.106;11.548;2022-07-29T06:23:54;39.20;33.80
29813;DHT22;16707;48.106;11.548;2022-07-29T06:26:21;42.00;32.40
29813;DHT22;16707;48.106;11.548;2022-07-29T06:28:50;41.80;30.90
29813;DHT22;16707;48.106;11.548;2022-07-29T06:31:17;41.20;31.60
29813;DHT22;16707;48.106;11.548;2022-07-29T06:33:48;43.10;30.70
29813;DHT22;16707;48.106;11.548;2022-07-29T06:36:16;43.50;29.50
29813;DHT22;16707;48.106;11.548;2022-07-29T06:38:47;43.80;29.70
29813;DHT22;16707;48.106;11.548;2022-07-29T06:41:20;44.00;29.70
29813;DHT22;16707;48.106;11.548;2022-07-29T06:43:52;44.50;29.00
29813;DHT22;16707;48.106;11.548;2022-07-29T06:46:22;42.30;30.60
29813;DHT22;16707;48.106;11.548;2022-07-29T06:48:50;41.40;30.50
29813;DHT22;16707;48.106;11.548;2022-07-29T06:51:21;40.80;32.40
29813;DHT22;16707;48.106;11.548;2022-07-29T06:54:02;41.50;31.40
29813;DHT22;16707;48.106;11.548;2022-07-29T06:56:34;41.20;31.70
29813;DHT22;16707;48.106;11.548;2022-07-29T06:59:04;41.90;30.40
29813;DHT22;16707;48.106;11.548;2022-07-29T07:01:32;41.40;31.10
29813;DHT22;16707;48.106;11.548;2022-07-29T07:03:59;41.50;30.80
29813;DHT22;16707;48.106;11.548;2022-07-29T07:06:27;43.50;29.00
29813;DHT22;16707;48.106;11.548;2022-07-29T07:08:54;42.40;29.20
29813;DHT22;16707;48.106;11.548;2022-07-29T07:11:26;42.40;30.00
29813;DHT22;16707;48.106;11.548;2022-07-29T07:13:54;41.40;29.60
29813;DHT22;16707;48.106;11.548;2022-07-29T07:16:24;38.90;30.70
29813;DHT22;16707;48.106;11.548;2022-07-29T07:18:51;35.50;34.70
29813;DHT22;16707;48.106;11.548;2022-07-29T07:21:19;33.20;39.70
29813;DHT22;16707;48.106;11.548;2022-07-29T07:23:46;31.10;43.00
29813;DHT22;16707;48.106;11.548;2022-07-29T07:26:15;30.30;44.90
29813;DHT22;16707;48.106;11.548;2022-07-29T07:28:43;30.00;46.40
29813;DHT22;16707;48.106;11.548;2022-07-29T07:31:10;29.30;48.60
29813;DHT22;16707;48.106;11.548;2022-07-29T07:33:39;28.30;50.30
29813;DHT22;16707;48.106;11.548;2022-07-29T07:36:12;27.50;51.60
29813;DHT22;16707;48.106;11.548;2022-07-29T07:38:39;27.20;53.00
29813;DHT22;16707;48.106;11.548;2022-07-29T07:41:10;26.60;52.90
29813;DHT22;16707;48.106;11.548;2022-07-29T07:43:37;26.80;53.20
29813;DHT22;16707;48.106;11.548;2022-07-29T07:46:12;26.50;53.20
29813;DHT22;16707;48.106;11.548;2022-07-29T07:48:47;25.90;54.80
29813;DHT22;16707;48.106;11.548;2022-07-29T07:51:17;25.50;56.10
29813;DHT22;16707;48.106;11.548;2022-07-29T07:53:44;25.40;56.90
29813;DHT22;16707;48.106;11.548;2022-07-29T07:56:20;25.30;57.00
29813;DHT22;16707;48.106;11.548;2022-07-29T07:58:47;25.20;56.60
29813;DHT22;16707;48.106;11.548;2022-07-29T08:01:14;25.10;57.10
29813;DHT22;16707;48.106;11.548;2022-07-29T08:03:48;25.20;58.10
29813;DHT22;16707;48.106;11.548;2022-07-29T08:06:18;25.20;57.00
29813;DHT22;16707;48.106;11.548;2022-07-29T08:08:49;25.10;57.00
29813;DHT22;16707;48.106;11.548;2022-07-29T08:11:17;25.00;57.90
29813;DHT22;16707;48.106;11.548;2022-07-29T08:13:45;25.20;58.00
29813;DHT22;16707;48.106;11.548;2022-07-29T08:16:14;25.20;57.50
29813;DHT22;16707;48.106;11.548;2022-07-29T08:18:43;25.20;57.70
29813;DHT22;16707;48.106;11.548;2022-07-29T08:21:16;25.20;58.80
29813;DHT22;16707;48.106;11.548;2022-07-29T08:23:46;25.20;58.10
29813;DHT22;16707;48.106;11.548;2022-07-29T08:26:18;25.40;59.30
29813;DHT22;16707;48.106;11.548;2022-07-29T08:28:48;25.40;57.40
29813;DHT22;16707;48.106;11.548;2022-07-29T08:31:16;25.40;58.20
29813;DHT22;16707;48.106;11.548;2022-07-29T08:33:44;25.50;57.70
29813;DHT22;16707;48.106;11.548;2022-07-29T08:36:13;25.60;57.80
29813;DHT22;16707;48.106;11.548;2022-07-29T08:38:44;25.80;57.60
29813;DHT22;16707;48.106;11.548;2022-07-29T08:41:11;25.90;58.90
29813;DHT22;16707;48.106;11.548;2022-07-29T08:43:40;25.90;56.30
29813;DHT22;16707;48.106;11.548;2022-07-29T08:46:10;25.90;56.80
29813;DHT22;16707;48.106;11.548;2022-07-29T08:48:43;26.30;56.60
29813;DHT22;16707;48.106;11.548;2022-07-29T08:51:13;26.50;55.50
29813;DHT22;16707;48.106;11.548;2022-07-29T08:53:44;26.90;55.00
29813;DHT22;16707;48.106;11.548;2022-07-29T08:56:14;27.60;54.00
29813;DHT22;16707;48.106;11.548;2022-07-29T08:58:45;27.50;53.40
29813;DHT22;16707;48.106;11.548;2022-07-29T09:01:16;27.60;54.80
29813;DHT22;16707;48.106;11.548;2022-07-29T09:03:46;27.70;54.20
29813;DHT22;16707;48.106;11.548;2022-07-29T09:06:14;28.00;53.20
29813;DHT22;16707;48.106;11.548;2022-07-29T09:08:42;28.30;53.50
29813;DHT22;16707;48.106;11.548;2022-07-29T09:11:11;28.30;52.90
29813;DHT22;16707;48.106;11.548;2022-07-29T09:13:40;28.30;52.60
29813;DHT22;16707;48.106;11.548;2022-07-29T09:16:10;28.10;53.10
29813;DHT22;16707;48.106;11.548;2022-07-29T09:18:43;28.10;53.30
29813;DHT22;16707;48.106;11.548;2022-07-29T09:21:13;28.10;52.80
29813;DHT22;16707;48.106;11.548;2022-07-29T09:24:09;28.30;52.90
29813;DHT22;16707;48.106;11.548;2022-07-29T09:26:44;28.10;52.90
29813;DHT22;16707;48.106;11.548;2022-07-29T09:29:16;28.00;52.80
29813;DHT22;16707;48.106;11.548;2022-07-29T09:31:50;28.40;53.20
29813;DHT22;16707;48.106;11.548;2022-07-29T09:34:23;28.40;52.90
29813;DHT22;16707;48.106;11.548;2022-07-29T09:36:56;28.30;53.00
29813;DHT22;16707;48.106;11.548;2022-07-29T09:39:31;28.60;53.80
29813;DHT22;16707;48.106;11.548;2022-07-29T09:42:02;28.90;52.30
29813;DHT22;16707;48.106;11.548;2022-07-29T09:44:41;28.60;52.00
29813;DHT22;16707;48.106;11.548;2022-07-29T09:47:10;28.30;53.70
29813;DHT22;16707;48.106;11.548;2022-07-29T09:49:54;28.10;54.00
29813;DHT22;16707;48.106;11.548;2022-07-29T09:52:25;27.90;53.90
29813;DHT22;16707;48.106;11.548;2022-07-29T09:55:04;27.90;55.10
29813;DHT22;16707;48.106;11.548;2022-07-29T09:57:40;27.90;54.40
29813;DHT22;16707;48.106;11.548;2022-07-29T10:00:19;28.10;54.30
29813;DHT22;16707;48.106;11.548;2022-07-29T10:02:50;28.20;54.40
29813;DHT22;16707;48.106;11.548;2022-07-29T10:05:23;28.30;53.70
29813;DHT22;16707;48.106;11.548;2022-07-29T10:07:55;28.30;54.00
29813;DHT22;16707;48.106;11.548;2022-07-29T10:10:29;28.30;53.30
29813;DHT22;16707;48.106;11.548;2022-07-29T10:13:01;28.10;53.80
29813;DHT22;16707;48.106;11.548;2022-07-29T10:15:33;27.90;54.00
29813;DHT22;16707;48.106;11.548;2022-07-29T10:18:07;27.80;54.40
29813;DHT22;16707;48.106;11.548;2022-07-29T10:20:38;27.40;55.60
29813;DHT22;16707;48.106;11.548;2022-07-29T10:23:08;27.10;56.60
29813;DHT22;16707;48.106;11.548;2022-07-29T10:25:39;27.30;57.00
29813;DHT22;16707;48.106;11.548;2022-07-29T10:28:07;27.30;56.60
29813;DHT22;16707;48.106;11.548;2022-07-29T10:30:38;27.30;56.60
29813;DHT22;16707;48.106;11.548;2022-07-29T10:33:21;27.50;56.70
29813;DHT22;16707;48.106;11.548;2022-07-29T10:36:19;27.40;56.30
29813;DHT22;16707;48.106;11.548;2022-07-29T10:38:51;27.30;56.00
29813;DHT22;16707;48.106;11.548;2022-07-29T10:41:38;27.40;56.90
29813;DHT22;16707;48.106;11.548;2022-07-29T10:44:20;27.70;56.20
29813;DHT22;16707;48.106;11.548;2022-07-29T10:46:48;27.90;55.30
29813;DHT22;16707;48.106;11.548;2022-07-29T10:49:18;27.90;55.70
29813;DHT22;16707;48.106;11.548;2022-07-29T10:51:55;27.90;56.70
29813;DHT22;16707;48.106;11.548;2022-07-29T10:54:44;28.10;55.70
29813;DHT22;16707;48.106;11.548;2022-07-29T10:57:17;28.00;54.80
29813;DHT22;16707;48.106;11.548;2022-07-29T10:59:47;28.30;54.70
29813;DHT22;16707;48.106;11.548;2022-07-29T11:02:42;28.60;54.20
29813;DHT22;16707;48.106;11.548;2022-07-29T11:05:12;28.70;53.10
29813;DHT22;16707;48.106;11.548;2022-07-29T11:08:16;29.00;53.60
29813;DHT22;16707;48.106;11.548;2022-07-29T11:10:53;29.10;52.20
29813;DHT22;16707;48.106;11.548;2022-07-29T11:14:04;28.50;52.90
29813;DHT22;16707;48.106;11.548;2022-07-29T11:16:59;28.00;54.20
29813;DHT22;16707;48.106;11.548;2022-07-29T11:19:33;27.80;53.00
29813;DHT22;16707;48.106;11.548;2022-07-29T11:22:07;27.80;54.00
29813;DHT22;16707;48.106;11.548;2022-07-29T11:24:41;27.80;51.70
29813;DHT22;16707;48.106;11.548;2022-07-29T11:27:13;28.00;52.20
29813;DHT22;16707;48.106;11.548;2022-07-29T11:29:54;28.20;51.50
29813;DHT22;16707;48.106;11.548;2022-07-29T11:32:23;28.30;52.00
29813;DHT22;16707;48.106;11.548;2022-07-29T11:35:18;28.20;51.40
29813;DHT22;16707;48.106;11.548;2022-07-29T11:38:27;28.10;52.40
29813;DHT22;16707;48.106;11.548;2022-07-29T11:41:23;28.20;52.80
29813;DHT22;16707;48.106;11.548;2022-07-29T11:43:51;28.60;53.10
29813;DHT22;16707;48.106;11.548;2022-07-29T11:46:44;28.80;51.00
29813;DHT22;16707;48.106;11.548;2022-07-29T11:49:22;29.00;51.60
29813;DHT22;16707;48.106;11.548;2022-07-29T11:51:52;29.00;50.20
29813;DHT22;16707;48.106;11.548;2022-07-29T11:54:34;29.20;51.30
29813;DHT22;16707;48.106;11.548;2022-07-29T11:57:02;29.00;51.20
29813;DHT22;16707;48.106;11.548;2022-07-29T11:59:39;29.30;50.60
29813;DHT22;16707;48.106;11.548;2022-07-29T12:02:12;29.80;49.20
29813;DHT22;16707;48.106;11.548;2022-07-29T12:04:48;29.80;49.60
29813;DHT22;16707;48.106;11.548;2022-07-29T12:07:26;29.60;49.90
29813;DHT22;16707;48.106;11.548;2022-07-29T12:09:56;30.20;49.40
29813;DHT22;16707;48.106;11.548;2022-07-29T12:12:27;30.20;48.20
29813;DHT22;16707;48.106;11.548;2022-07-29T12:14:56;29.60;49.00
29813;DHT22;16707;48.106;11.548;2022-07-29T12:17:29;29.60;48.20
29813;DHT22;16707;48.106;11.548;2022-07-29T12:20:00;30.00;48.60
29813;DHT22;16707;48.106;11.548;2022-07-29T12:22:37;30.40;48.10
29813;DHT22;16707;48.106;11.548;2022-07-29T12:25:13;30.30;46.70
29813;DHT22;16707;48.106;11.548;2022-07-29T12:27:42;30.40;47.60
29813;DHT22;16707;48.106;11.548;2022-07-29T12:30:15;30.30;46.70
29813;DHT22;16707;48.106;11.548;2022-07-29T12:32:45;29.90;47.90
29813;DHT22;16707;48.106;11.548;2022-07-29T12:35:16;29.70;47.20
29813;DHT22;16707;48.106;11.548;2022-07-29T12:37:51;29.70;49.00
29813;DHT22;16707;48.106;11.548;2022-07-29T12:40:20;29.90;48.80
29813;DHT22;16707;48.106;11.548;2022-07-29T12:43:09;30.30;49.30
29813;DHT22;16707;48.106;11.548;2022-07-29T12:45:48;30.80;47.90
29813;DHT22;16707;48.106;11.548;2022-07-29T12:48:32;30.60;47.30
29813;DHT22;16707;48.106;11.548;2022-07-29T12:51:10;30.70;47.70
29813;DHT22;16707;48.106;11.548;2022-07-29T12:53:40;31.00;47.00
29813;DHT22;16707;48.106;11.548;2022-07-29T12:56:27;31.30;46.20
29813;DHT22;16707;48.106;11.548;2022-07-29T12:58:57;31.20;45.60
29813;DHT22;16707;48.106;11.548;2022-07-29T13:01:36;30.50;48.00
29813;DHT22;16707;48.106;11.548;2022-07-29T13:04:11;30.00;50.20
29813;DHT22;16707;48.106;11.548;2022-07-29T13:07:01;29.80;50.40
29813;DHT22;16707;48.106;11.548;2022-07-29T13:09:39;29.60;49.60
29813;DHT22;16707;48.106;11.548;2022-07-29T13:12:08;29.10;50.10
29813;DHT22;16707;48.106;11.548;2022-07-29T13:14:44;28.70;53.30
29813;DHT22;16707;48.106;11.548;2022-07-29T13:17:16;28.50;51.20
29813;DHT22;16707;48.106;11.548;2022-07-29T13:19:48;28.40;52.10
29813;DHT22;16707;48.106;11.548;2022-07-29T13:22:23;28.20;53.20
29813;DHT22;16707;48.106;11.548;2022-07-29T13:24:59;28.00;53.50
29813;DHT22;16707;48.106;11.548;2022-07-29T13:27:29;27.80;54.70
29813;DHT22;16707;48.106;11.548;2022-07-29T13:29:59;27.60;54.50
29813;DHT22;16707;48.106;11.548;2022-07-29T13:32:29;27.40;54.90
29813;DHT22;16707;48.106;11.548;2022-07-29T13:35:04;27.40;54.40
29813;DHT22;16707;48.106;11.548;2022-07-29T13:37:42;27.10;54.90
29813;DHT22;16707;48.106;11.548;2022-07-29T13:40:15;26.90;56.00
29813;DHT22;16707;48.106;11.548;2022-07-29T13:42:45;26.80;56.60
29813;DHT22;16707;48.106;11.548;2022-07-29T13:45:18;26.80;56.20
29813;DHT22;16707;48.106;11.548;2022-07-29T13:47:45;26.70;56.10
29813;DHT22;16707;48.106;11.548;2022-07-29T13:50:25;26.70;56.70
29813;DHT22;16707;48.106;11.548;2022-07-29T13:52:55;26.90;56.70
29813;DHT22;16707;48.106;11.548;2022-07-29T13:55:23;26.80;56.90
29813;DHT22;16707;48.106;11.548;2022-07-29T13:57:56;26.80;56.40
29813;DHT22;16707;48.106;11.548;2022-07-29T14:00:26;27.00;56.30
29813;DHT22;16707;48.106;11.548;2022-07-29T14:02:55;27.40;55.60
29813;DHT22;16707;48.106;11.548;2022-07-29T14:05:23;27.70;54.60
29813;DHT22;16707;48.106;11.548;2022-07-29T14:07:51;27.80;55.40
29813;DHT22;16707;48.106;11.548;2022-07-29T14:10:25;27.80;55.00
29813;DHT22;16707;48.106;11.548;2022-07-29T14:12:52;27.80;54.80
29813;DHT22;16707;48.106;11.548;2022-07-29T14:15:23;27.80;56.00
29813;DHT22;16707;48.106;11.548;2022-07-29T14:17:53;27.80;55.40
29813;DHT22;16707;48.106;11.548;2022-07-29T14:20:20;27.80;56.00
29813;DHT22;16707;48.106;11.548;2022-07-29T14:22:58;27.80;55.50
29813;DHT22;16707;48.106;11.548;2022-07-29T14:25:25;28.00;54.50
29813;DHT22;16707;48.106;11.548;2022-07-29T14:27:58;27.70;54.60
29813;DHT22;16707;48.106;11.548;2022-07-29T14:30:26;27.70;54.00
29813;DHT22;16707;48.106;11.548;2022-07-29T14:32:59;27.80;54.60
29813;DHT22;16707;48.106;11.548;2022-07-29T14:35:38;27.50;54.10
29813;DHT22;16707;48.106;11.548;2022-07-29T14:38:08;27.40;54.90
29813;DHT22;16707;48.106;11.548;2022-07-29T14:40:41;27.60;55.50
29813;DHT22;16707;48.106;11.548;2022-07-29T14:43:08;27.30;54.30
29813;DHT22;16707;48.106;11.548;2022-07-29T14:45:44;27.20;54.80
29813;DHT22;16707;48.106;11.548;2022-07-29T14:48:11;27.30;54.80
29813;DHT22;16707;48.106;11.548;2022-07-29T14:50:40;27.20;54.00
29813;DHT22;16707;48.106;11.548;2022-07-29T14:53:13;27.30;54.90
29813;DHT22;16707;48.106;11.548;2022-07-29T14:55:43;27.20;54.90
29813;DHT22;16707;48.106;11.548;2022-07-29T14:58:10;27.10;55.00
29813;DHT22;16707;48.106;11.548;2022-07-29T15:00:44;27.10;55.30
29813;DHT22;16707;48.106;11.548;2022-07-29T15:03:11;27.00;55.30
29813;DHT22;16707;48.106;11.548;2022-07-29T15:05:43;27.00;55.80
29813;DHT22;16707;48.106;11.548;2022-07-29T15:08:15;26.90;56.20
29813;DHT22;16707;48.106;11.548;2022-07-29T15:10:51;27.00;56.00
29813;DHT22;16707;48.106;11.548;2022-07-29T15:13:21;26.90;55.90
29813;DHT22;16707;48.106;11.548;2022-07-29T15:15:56;26.80;56.80
29813;DHT22;16707;48.106;11.548;2022-07-29T15:18:26;26.70;58.00
29813;DHT22;16707;48.106;11.548;2022-07-29T15:20:57;26.60;57.40
29813;DHT22;16707;48.106;11.548;2022-07-29T15:23:26;26.50;58.10
29813;DHT22;16707;48.106;11.548;2022-07-29T15:25:59;26.40;58.10
29813;DHT22;16707;48.106;11.548;2022-07-29T15:28:29;26.40;57.20
29813;DHT22;16707;48.106;11.548;2022-07-29T15:30:59;26.40;57.10
29813;DHT22;16707;48.106;11.548;2022-07-29T15:33:30;26.30;57.00
29813;DHT22;16707;48.106;11.548;2022-07-29T15:36:04;26.10;57.90
29813;DHT22;16707;48.106;11.548;2022-07-29T15:38:38;26.10;58.60
29813;DHT22;16707;48.106;11.548;2022-07-29T15:41:13;26.10;59.20
29813;DHT22;16707;48.106;11.548;2022-07-29T15:43:44;26.20;58.70
29813;DHT22;16707;48.106;11.548;2022-07-29T15:46:18;26.10;58.90
29813;DHT22;16707;48.106;11.548;2022-07-29T15:49:05;26.00;59.90
29813;DHT22;16707;48.106;11.548;2022-07-29T15:51:34;25.70;61.60